الصفحة الرئيسية
METAR-TAF:

METAR-TAF

مطار :

مطار تندوف

تندوف, الجزائر

دائرة عرض: 27-40N, خط طول: 008-08W, ارتفاع: 431 متر

مراقبة الطقس الحالي

تاريخ ووقت الإصدار 1ساعة و 13 دقيقة قبل الساعة 12:00UTC
ريح 11 عقدة من الشرق
درجة الحرارة 23°درجة مئوية
الرطوبة 17%
ضغط 1023 hPa
الرؤية 10 كم أو أكثر
الغيوم لا تقل 1500 م ولا وجود لمزنة ركامية السحاب الأسود

METAR: DAOF 261200Z 09011KT CAVOK 23/M03 Q1023

زمن: 14:13 (13:13 UTC)

توقعات

تاريخ ووقت الإصدار 2ساعات و 13 دقيقة قبل الساعة 11:00UTC
التوقعات صالحة من26 الساعة 12 UTC إلى 26 الساعة 21 UTC
ريح 10 عقدة من الشرق
الرؤية 10 كم أو أكثر
الغيوم لا تقل 1500 م ولا وجود لمزنة ركامية السحاب الأسود
نظرية الاحتمالات 30% :
مؤقت
من 26 الساعة 12 UTC إلى 26 الساعة 15 UTC
ريح 20 عقدة من الشرق
الرؤية: 4000 متر
هبوب عاصفة رملية منخفضة

TAF: DAOF 261100Z 2612/2621 08010KT CAVOK PROB30 TEMPO 2612/2615 08020KT 4000 DRSA

أرصاد الطقس والتوقعات من أكثر من 4000 مطار (تقارير الطقس للمطار METAR والتنبؤ بالطقس بالمطارTAF).

المحطات المتاحة هي النقط الصفراء والحمراء على الخريطة.

حرك المؤشر فوق النقطة لمعرفة اسم المحطة.

ثم انقر لمعرفة أرصاد وتوقعات الطقس.

لتغيير الخارطة: اضغط على الأزرار الخضراء مع رمز الصليب الأسود للتكبير. على الزر الأخضر مع شرطة للتصغير، أو على الأسهم الخضراء للخرائط المجاورة.


METAR-TAF: